createdAt,value
2023-02-18T00:01:33.067Z,13.67
2023-02-18T00:04:01.701Z,16.30
2023-02-18T00:06:31.935Z,13.23
2023-02-18T00:09:02.377Z,16.33
2023-02-18T00:11:32.101Z,16.83
2023-02-18T00:14:01.768Z,13.53
2023-02-18T00:16:32.664Z,14.33
2023-02-18T00:19:02.714Z,13.77
2023-02-18T00:21:31.557Z,15.57
2023-02-18T00:23:59.709Z,12.70
2023-02-18T00:26:28.627Z,15.03
2023-02-18T00:28:56.875Z,13.57
2023-02-18T00:31:26.816Z,13.83
2023-02-18T00:33:57.731Z,15.60
2023-02-18T00:36:26.695Z,11.90
2023-02-18T00:38:56.383Z,13.20
2023-02-18T00:41:26.712Z,9.33
2023-02-18T00:43:54.853Z,9.53
2023-02-18T00:46:24.148Z,8.13
2023-02-18T00:48:52.171Z,8.40
2023-02-18T00:51:22.140Z,7.40
2023-02-18T00:53:50.100Z,8.47
2023-02-18T00:56:18.669Z,8.37
2023-02-18T00:58:46.652Z,7.20
2023-02-18T01:01:14.955Z,6.73
2023-02-18T01:03:43.953Z,6.90
2023-02-18T01:06:13.473Z,9.60
2023-02-18T01:08:43.361Z,11.87
2023-02-18T01:11:12.928Z,9.73
2023-02-18T01:13:42.409Z,10.13
2023-02-18T01:16:11.023Z,10.40
2023-02-18T01:18:39.305Z,8.37
2023-02-18T01:21:08.803Z,8.47
2023-02-18T01:23:37.671Z,10.43
2023-02-18T01:26:07.735Z,10.43
2023-02-18T01:28:36.252Z,10.27
2023-02-18T01:31:08.238Z,8.27
2023-02-18T01:33:36.950Z,9.23
2023-02-18T01:36:06.473Z,9.80
2023-02-18T01:38:34.659Z,5.93
2023-02-18T01:41:02.896Z,10.83
2023-02-18T01:43:32.692Z,8.30
2023-02-18T01:46:19.141Z,6.70
2023-02-18T01:48:51.810Z,7.27
2023-02-18T01:51:23.460Z,7.10
2023-02-18T01:53:55.539Z,6.07
2023-02-18T01:56:27.989Z,9.50
2023-02-18T01:59:00.666Z,6.10
2023-02-18T02:01:29.377Z,6.93
2023-02-18T02:03:57.355Z,6.33
2023-02-18T02:06:25.996Z,8.63
2023-02-18T02:08:57.214Z,5.37
2023-02-18T02:11:57.089Z,7.97
2023-02-18T02:14:43.922Z,7.87
2023-02-18T02:17:19.828Z,5.93
2023-02-18T02:20:24.124Z,6.17
2023-02-18T02:23:24.143Z,6.93
2023-02-18T02:26:12.934Z,7.33
2023-02-18T02:29:05.827Z,9.60
2023-02-18T02:32:16.381Z,6.90
2023-02-18T02:34:53.881Z,7.07
2023-02-18T02:37:32.102Z,8.03
2023-02-18T02:40:11.620Z,6.10
2023-02-18T02:42:52.055Z,7.87
2023-02-18T02:45:27.243Z,6.40
2023-02-18T02:48:01.778Z,7.83
2023-02-18T02:50:38.495Z,7.70
2023-02-18T02:53:14.400Z,7.40
2023-02-18T02:55:42.359Z,7.87
2023-02-18T02:58:16.890Z,7.33
2023-02-18T03:01:02.676Z,6.67
2023-02-18T03:03:48.914Z,5.87
2023-02-18T03:06:47.590Z,8.77
2023-02-18T03:09:20.698Z,6.87
2023-02-18T03:11:58.832Z,7.97
2023-02-18T03:14:30.947Z,7.53
2023-02-18T03:17:04.274Z,9.20
2023-02-18T03:19:39.569Z,5.73
2023-02-18T03:22:13.197Z,5.97
2023-02-18T03:24:43.536Z,9.30
2023-02-18T03:27:15.135Z,7.47
2023-02-18T03:29:47.279Z,8.73
2023-02-18T03:32:19.834Z,8.77
2023-02-18T03:34:52.578Z,6.13
2023-02-18T03:37:22.746Z,6.27
2023-02-18T03:39:54.582Z,5.93
2023-02-18T03:42:27.628Z,7.93
2023-02-18T03:44:55.626Z,7.23
2023-02-18T03:47:23.721Z,7.13
2023-02-18T03:49:51.704Z,6.90
2023-02-18T03:52:21.026Z,8.27
2023-02-18T03:54:49.014Z,5.87
2023-02-18T03:57:16.968Z,8.73
2023-02-18T03:59:45.035Z,7.43
2023-02-18T04:02:13.021Z,8.37
2023-02-18T04:04:41.019Z,7.83
2023-02-18T04:07:09.012Z,8.50
2023-02-18T04:09:38.379Z,10.70
2023-02-18T04:12:06.645Z,7.30
2023-02-18T04:14:34.577Z,7.20
2023-02-18T04:17:02.583Z,6.07
2023-02-18T04:19:30.531Z,5.97
2023-02-18T04:21:58.501Z,7.83
2023-02-18T04:24:26.611Z,5.27
2023-02-18T04:26:55.981Z,5.60
2023-02-18T04:29:23.916Z,5.77
2023-02-18T04:31:51.934Z,4.90
2023-02-18T04:34:19.926Z,4.70
2023-02-18T04:36:47.908Z,4.33
2023-02-18T04:39:15.964Z,5.07
2023-02-18T04:41:43.987Z,6.57
2023-02-18T04:44:13.330Z,4.60
2023-02-18T04:46:41.278Z,4.77
2023-02-18T04:49:09.288Z,4.50
2023-02-18T04:51:37.643Z,6.17
2023-02-18T04:54:06.155Z,4.87
2023-02-18T04:56:34.169Z,5.90
2023-02-18T04:59:02.161Z,5.33
2023-02-18T05:01:31.534Z,5.87
2023-02-18T05:03:59.545Z,6.13
2023-02-18T05:06:27.550Z,6.40
2023-02-18T05:08:55.578Z,8.67
2023-02-18T05:11:23.550Z,7.93
2023-02-18T05:13:51.524Z,5.60
2023-02-18T05:16:19.493Z,7.17
2023-02-18T05:18:48.791Z,7.47
2023-02-18T05:21:16.790Z,5.37
2023-02-18T05:23:44.783Z,6.43
2023-02-18T05:26:12.776Z,6.00
2023-02-18T05:28:40.735Z,6.07
2023-02-18T05:31:08.907Z,4.93
2023-02-18T05:33:36.972Z,5.33
2023-02-18T05:36:07.100Z,6.07
2023-02-18T05:38:35.357Z,5.00
2023-02-18T05:41:03.305Z,6.83
2023-02-18T05:43:31.326Z,7.67
2023-02-18T05:45:59.339Z,6.27
2023-02-18T05:48:27.374Z,7.27
2023-02-18T05:50:55.676Z,7.80
2023-02-18T05:53:24.979Z,7.97
2023-02-18T05:55:52.927Z,7.53
2023-02-18T05:58:20.880Z,6.33
2023-02-18T06:00:48.871Z,5.93
2023-02-18T06:03:16.862Z,7.37
2023-02-18T06:05:44.860Z,9.27
2023-02-18T06:08:12.848Z,8.20
2023-02-18T06:10:42.973Z,5.73
2023-02-18T06:13:10.923Z,4.43
2023-02-18T06:15:39.926Z,7.33
2023-02-18T06:18:08.360Z,4.57
2023-02-18T06:20:36.310Z,4.30
2023-02-18T06:23:04.365Z,5.47
2023-02-18T06:25:32.326Z,9.20
2023-02-18T06:28:01.672Z,5.00
2023-02-18T06:30:29.692Z,4.93
2023-02-18T06:32:57.736Z,4.87
2023-02-18T06:35:25.735Z,4.50
2023-02-18T06:37:54.500Z,4.53
2023-02-18T06:40:22.509Z,4.20
2023-02-18T06:42:56.490Z,4.50
2023-02-18T06:45:25.867Z,5.90
2023-02-18T06:47:53.833Z,5.50
2023-02-18T06:50:21.836Z,5.73
2023-02-18T06:52:50.070Z,6.07
2023-02-18T06:55:18.346Z,5.23
2023-02-18T06:57:46.442Z,5.30
2023-02-18T07:00:15.313Z,6.53
2023-02-18T07:02:44.737Z,6.60
2023-02-18T07:05:12.928Z,4.90
2023-02-18T07:07:40.898Z,5.13
2023-02-18T07:10:09.959Z,5.73
2023-02-18T07:12:37.961Z,6.17
2023-02-18T07:15:06.501Z,6.67
2023-02-18T07:17:34.478Z,5.30
2023-02-18T07:20:04.538Z,5.33
2023-02-18T07:22:32.525Z,5.30
2023-02-18T07:25:00.665Z,5.50
2023-02-18T07:27:28.748Z,5.90
2023-02-18T07:29:56.962Z,8.67
2023-02-18T07:32:25.087Z,5.50
2023-02-18T07:34:53.291Z,7.17
2023-02-18T07:37:22.727Z,6.77
2023-02-18T07:39:50.799Z,10.10
2023-02-18T07:42:21.906Z,5.50
2023-02-18T07:44:50.013Z,6.00
2023-02-18T07:47:21.767Z,7.97
2023-02-18T07:49:49.814Z,8.93
2023-02-18T07:52:18.053Z,8.07
2023-02-18T07:54:47.784Z,7.43
2023-02-18T07:57:16.034Z,8.40
2023-02-18T07:59:44.354Z,10.73
2023-02-18T08:02:18.835Z,8.73
2023-02-18T08:04:47.080Z,7.87
2023-02-18T08:07:20.324Z,6.50
2023-02-18T08:09:50.831Z,11.23
2023-02-18T08:12:18.992Z,8.97
2023-02-18T08:14:46.983Z,5.97
2023-02-18T08:17:15.646Z,10.47
2023-02-18T08:19:43.794Z,7.63
2023-02-18T08:22:12.230Z,8.27
2023-02-18T08:24:40.488Z,7.70
2023-02-18T08:27:09.892Z,9.23
2023-02-18T08:29:37.938Z,7.23
2023-02-18T08:32:06.345Z,10.07
2023-02-18T08:34:34.746Z,12.07
2023-02-18T08:37:03.418Z,11.30
2023-02-18T08:39:36.234Z,11.83
2023-02-18T08:42:05.677Z,9.60
2023-02-18T08:44:35.456Z,10.50
2023-02-18T08:47:03.472Z,11.33
2023-02-18T08:49:31.521Z,8.20
2023-02-18T08:51:59.556Z,10.07
2023-02-18T08:54:27.582Z,10.47
2023-02-18T08:56:57.737Z,21.57
2023-02-18T08:59:26.296Z,13.73
2023-02-18T09:01:55.650Z,9.90
2023-02-18T09:04:23.714Z,10.13
2023-02-18T09:06:51.719Z,11.67
2023-02-18T09:09:20.020Z,9.37
2023-02-18T09:11:48.020Z,10.73
2023-02-18T09:14:16.638Z,8.97
2023-02-18T09:16:44.644Z,7.00
2023-02-18T09:19:13.931Z,7.57
2023-02-18T09:21:41.930Z,12.07
2023-02-18T09:24:10.366Z,8.93
2023-02-18T09:26:39.762Z,9.50
2023-02-18T09:29:07.865Z,13.60
2023-02-18T09:31:35.977Z,11.57
2023-02-18T09:34:04.270Z,15.07
2023-02-18T09:36:34.547Z,10.97
2023-02-18T09:39:02.674Z,13.97
2023-02-18T09:41:40.493Z,10.70
2023-02-18T09:44:14.368Z,14.13
2023-02-18T09:46:47.564Z,12.30
2023-02-18T09:49:19.802Z,10.20
2023-02-18T09:51:49.690Z,10.30
2023-02-18T09:54:20.332Z,12.70
2023-02-18T09:56:49.538Z,13.33
2023-02-18T09:59:19.491Z,9.83
2023-02-18T10:01:52.103Z,7.37
2023-02-18T10:04:24.206Z,8.77
2023-02-18T10:06:55.178Z,11.47
2023-02-18T10:09:26.486Z,8.60
2023-02-18T10:11:59.003Z,7.77
2023-02-18T10:14:27.523Z,7.60
2023-02-18T10:16:55.682Z,11.93
2023-02-18T10:19:28.957Z,11.87
2023-02-18T10:21:58.940Z,7.47
2023-02-18T10:24:34.507Z,11.80
2023-02-18T10:27:04.811Z,8.73
2023-02-18T10:29:32.975Z,10.50
2023-02-18T10:32:08.342Z,10.13
2023-02-18T10:34:46.680Z,11.23
2023-02-18T10:37:30.152Z,13.60
2023-02-18T10:40:10.760Z,14.67
2023-02-18T10:42:48.072Z,9.23
2023-02-18T10:45:27.694Z,9.57
2023-02-18T10:48:06.302Z,10.80
2023-02-18T10:50:39.149Z,12.13
2023-02-18T10:53:15.172Z,14.87
2023-02-18T10:55:45.532Z,10.97
2023-02-18T10:58:28.920Z,9.80
2023-02-18T11:00:57.272Z,15.00
2023-02-18T11:03:26.640Z,9.90
2023-02-18T11:05:56.825Z,14.30
2023-02-18T11:08:28.900Z,18.23
2023-02-18T11:10:58.574Z,14.07
2023-02-18T11:13:29.279Z,15.43
2023-02-18T11:16:00.483Z,13.37
2023-02-18T11:18:34.927Z,13.27
2023-02-18T11:21:05.506Z,11.53
2023-02-18T11:23:47.823Z,9.77
2023-02-18T11:26:18.449Z,10.47
2023-02-18T11:28:48.852Z,10.30
2023-02-18T11:31:22.651Z,19.93
2023-02-18T11:33:54.257Z,10.70
2023-02-18T11:36:29.095Z,11.00
2023-02-18T11:39:00.327Z,9.77
2023-02-18T11:41:35.153Z,12.47
2023-02-18T11:44:06.028Z,11.23
2023-02-18T11:46:34.186Z,14.10
2023-02-18T11:49:22.514Z,12.60
2023-02-18T11:51:51.886Z,11.87
2023-02-18T11:54:27.466Z,10.23
2023-02-18T11:56:58.359Z,9.80
2023-02-18T11:59:27.034Z,9.40
2023-02-18T12:02:00.321Z,12.77
2023-02-18T12:04:31.227Z,19.23
2023-02-18T12:07:14.246Z,12.07
2023-02-18T12:09:48.063Z,13.37
2023-02-18T12:12:20.680Z,18.63
2023-02-18T12:14:48.714Z,17.13
2023-02-18T12:17:41.322Z,14.60
2023-02-18T12:20:27.047Z,22.50
2023-02-18T12:23:02.897Z,20.17
2023-02-18T12:25:38.828Z,18.10
2023-02-18T12:28:22.450Z,16.87
2023-02-18T12:31:12.371Z,18.97
2023-02-18T12:33:53.062Z,20.60
2023-02-18T12:36:33.322Z,18.63
2023-02-18T12:39:11.684Z,18.87
2023-02-18T12:41:55.858Z,17.60
2023-02-18T12:44:45.144Z,17.00
2023-02-18T12:47:37.496Z,17.73
2023-02-18T12:50:32.624Z,15.43
2023-02-18T12:53:17.722Z,23.50
2023-02-18T12:56:01.907Z,19.47
2023-02-18T12:58:44.657Z,17.90
2023-02-18T13:01:29.297Z,20.53
2023-02-18T13:04:26.837Z,19.63
2023-02-18T13:07:18.487Z,21.30
2023-02-18T13:10:02.452Z,19.43
2023-02-18T13:12:36.263Z,28.70
2023-02-18T13:15:14.715Z,29.47
2023-02-18T13:17:44.233Z,31.37
2023-02-18T13:20:21.966Z,23.93
2023-02-18T13:22:50.855Z,22.63
2023-02-18T13:25:20.455Z,18.40
2023-02-18T13:27:57.523Z,19.70
2023-02-18T13:30:35.601Z,29.27
2023-02-18T13:33:15.438Z,25.57
2023-02-18T13:35:48.695Z,27.93
2023-02-18T13:38:46.914Z,29.37
2023-02-18T13:41:15.102Z,33.40
2023-02-18T13:43:45.656Z,31.13
2023-02-18T13:46:19.181Z,25.37
2023-02-18T13:48:52.589Z,21.43
2023-02-18T13:51:31.854Z,19.70
2023-02-18T13:54:05.373Z,20.77
2023-02-18T13:56:36.358Z,23.97
2023-02-18T13:59:11.683Z,18.73
2023-02-18T14:01:43.694Z,25.50
2023-02-18T14:04:48.999Z,26.80
2023-02-18T14:07:31.429Z,23.63
2023-02-18T14:10:00.225Z,25.27
2023-02-18T14:12:38.593Z,22.83
2023-02-18T14:15:43.819Z,21.50
2023-02-18T14:18:25.870Z,22.47
2023-02-18T14:20:54.552Z,25.07
2023-02-18T14:23:59.904Z,23.53
2023-02-18T14:26:37.574Z,23.20
2023-02-18T14:29:19.109Z,22.03
2023-02-18T14:31:53.313Z,21.20
2023-02-18T14:34:37.258Z,25.57
2023-02-18T14:37:18.591Z,30.20
2023-02-18T14:39:55.589Z,28.57
2023-02-18T14:42:35.814Z,39.30
2023-02-18T14:45:18.297Z,28.97
2023-02-18T14:48:07.828Z,36.47
2023-02-18T14:50:39.874Z,37.87
2023-02-18T14:53:13.364Z,33.80
2023-02-18T14:55:47.046Z,40.63
2023-02-18T14:58:27.624Z,53.07
2023-02-18T15:00:55.622Z,39.30
2023-02-18T15:03:25.193Z,45.77
2023-02-18T15:05:54.569Z,43.63
2023-02-18T15:08:24.138Z,38.23
2023-02-18T15:10:57.677Z,38.87
2023-02-18T15:13:29.387Z,34.07
2023-02-18T15:16:01.121Z,29.80
2023-02-18T15:18:33.602Z,31.80
2023-02-18T15:21:04.399Z,32.37
2023-02-18T15:23:36.091Z,35.67
2023-02-18T15:26:04.857Z,33.93
2023-02-18T15:28:35.233Z,33.77
2023-02-18T15:31:05.250Z,35.87
2023-02-18T15:33:33.253Z,34.73
2023-02-18T15:36:07.952Z,42.30
2023-02-18T15:38:39.160Z,30.40
2023-02-18T15:41:12.512Z,38.87
2023-02-18T15:43:41.607Z,37.80
2023-02-18T15:46:15.166Z,38.63
2023-02-18T15:48:47.814Z,41.73
2023-02-18T15:51:23.134Z,43.17
2023-02-18T15:53:54.404Z,40.23
2023-02-18T15:56:29.410Z,42.57
2023-02-18T15:59:10.381Z,40.87
2023-02-18T16:01:38.874Z,43.83
2023-02-18T16:04:08.464Z,43.07
2023-02-18T16:06:40.278Z,35.57
2023-02-18T16:09:17.070Z,34.50
2023-02-18T16:11:48.263Z,35.50
2023-02-18T16:14:28.899Z,36.47
2023-02-18T16:17:15.117Z,34.07
2023-02-18T16:20:03.562Z,38.43
2023-02-18T16:22:44.122Z,39.17
2023-02-18T16:25:18.259Z,38.30
2023-02-18T16:27:53.020Z,30.63
2023-02-18T16:30:23.518Z,35.90
2023-02-18T16:32:52.114Z,36.80
2023-02-18T16:35:20.620Z,35.03
2023-02-18T16:37:51.127Z,34.93
2023-02-18T16:40:29.172Z,33.83
2023-02-18T16:42:58.831Z,29.90
2023-02-18T16:45:34.542Z,31.43
2023-02-18T16:48:03.100Z,29.40
2023-02-18T16:50:34.058Z,24.30
2023-02-18T16:53:03.415Z,25.33
2023-02-18T16:55:32.371Z,25.53
2023-02-18T16:58:00.493Z,29.23
2023-02-18T17:00:28.553Z,28.73
2023-02-18T17:02:59.324Z,30.83
2023-02-18T17:05:30.565Z,34.77
2023-02-18T17:08:05.814Z,30.13
2023-02-18T17:10:36.459Z,25.63
2023-02-18T17:13:04.471Z,28.97
2023-02-18T17:15:35.519Z,28.13
2023-02-18T17:18:04.821Z,22.43
2023-02-18T17:20:34.107Z,24.00
2023-02-18T17:23:02.138Z,18.47
2023-02-18T17:25:35.601Z,19.67
2023-02-18T17:28:04.169Z,19.40
2023-02-18T17:30:36.156Z,19.10
2023-02-18T17:33:05.031Z,17.87
2023-02-18T17:35:33.361Z,18.17
2023-02-18T17:38:01.359Z,19.93
2023-02-18T17:40:31.182Z,15.87
2023-02-18T17:43:00.492Z,18.10
2023-02-18T17:45:32.020Z,16.90
2023-02-18T17:48:01.589Z,12.77
2023-02-18T17:50:31.258Z,14.93
2023-02-18T17:52:59.616Z,16.90
2023-02-18T17:55:29.689Z,18.47
2023-02-18T17:57:59.185Z,15.80
2023-02-18T18:00:31.123Z,14.20
2023-02-18T18:02:59.671Z,15.57
2023-02-18T18:05:29.660Z,17.43
2023-02-18T18:07:57.702Z,14.03
2023-02-18T18:10:30.984Z,15.10
2023-02-18T18:13:00.090Z,12.47
2023-02-18T18:15:32.098Z,13.37
2023-02-18T18:18:00.213Z,13.70
2023-02-18T18:20:30.184Z,13.37
2023-02-18T18:23:00.272Z,13.90
2023-02-18T18:25:29.620Z,13.20
2023-02-18T18:27:58.026Z,14.57
2023-02-18T18:30:28.242Z,14.23
2023-02-18T18:32:58.253Z,12.00
2023-02-18T18:35:29.166Z,12.70
2023-02-18T18:37:58.012Z,10.30
2023-02-18T18:40:28.186Z,11.70
2023-02-18T18:42:56.927Z,12.57
2023-02-18T18:45:27.439Z,10.57
2023-02-18T18:47:57.262Z,12.60
2023-02-18T18:50:26.302Z,11.57
2023-02-18T18:52:54.691Z,12.53
2023-02-18T18:55:33.836Z,11.23
2023-02-18T18:58:02.103Z,12.47
2023-02-18T19:00:32.558Z,10.17
2023-02-18T19:03:04.092Z,9.70
2023-02-18T19:05:34.753Z,12.47
2023-02-18T19:08:03.445Z,10.50
2023-02-18T19:10:33.174Z,10.23
2023-02-18T19:13:03.518Z,11.07
2023-02-18T19:15:31.916Z,10.80
2023-02-18T19:18:01.332Z,16.83
2023-02-18T19:20:32.675Z,22.37
2023-02-18T19:23:00.664Z,13.73
2023-02-18T19:25:29.062Z,8.63
2023-02-18T19:27:57.444Z,10.30
2023-02-18T19:30:27.325Z,9.40
2023-02-18T19:32:57.553Z,9.13
2023-02-18T19:35:28.052Z,9.60
2023-02-18T19:37:56.146Z,8.83
2023-02-18T19:40:26.174Z,10.67
2023-02-18T19:42:54.474Z,9.77
2023-02-18T19:45:22.941Z,13.80
2023-02-18T19:47:55.233Z,9.07
2023-02-18T19:50:24.235Z,10.83
2023-02-18T19:52:54.773Z,7.70
2023-02-18T19:55:23.654Z,9.87
2023-02-18T19:57:52.093Z,8.47
2023-02-18T20:00:22.304Z,7.73
2023-02-18T20:02:50.790Z,9.27
2023-02-18T20:05:20.019Z,12.80
2023-02-18T20:07:48.252Z,8.97
2023-02-18T20:10:20.730Z,12.63
2023-02-18T20:12:53.403Z,10.90
2023-02-18T20:15:21.885Z,8.97
2023-02-18T20:17:50.032Z,11.30
2023-02-18T20:20:18.764Z,7.90
2023-02-18T20:22:46.893Z,10.80
2023-02-18T20:25:14.870Z,9.93
2023-02-18T20:27:58.454Z,11.00
2023-02-18T20:30:27.719Z,10.47
2023-02-18T20:32:55.701Z,11.03
2023-02-18T20:35:23.663Z,10.73
2023-02-18T20:37:51.625Z,10.93
2023-02-18T20:40:19.670Z,9.17
2023-02-18T20:42:49.012Z,9.93
2023-02-18T20:45:17.078Z,10.57
2023-02-18T20:47:45.065Z,6.57
2023-02-18T20:50:13.060Z,12.27
2023-02-18T20:52:41.085Z,7.03
2023-02-18T20:55:09.346Z,6.33
2023-02-18T20:57:37.284Z,9.10
2023-02-18T21:00:07.877Z,8.93
2023-02-18T21:02:35.904Z,7.80
2023-02-18T21:05:04.066Z,5.60
2023-02-18T21:07:32.123Z,6.00
2023-02-18T21:10:00.161Z,5.67
2023-02-18T21:12:28.113Z,7.83
2023-02-18T21:14:56.119Z,10.40
2023-02-18T21:17:25.411Z,7.93
2023-02-18T21:19:53.388Z,7.77
2023-02-18T21:22:21.335Z,11.83
2023-02-18T21:24:51.405Z,8.97
2023-02-18T21:27:19.367Z,7.97
2023-02-18T21:29:47.366Z,8.10
2023-02-18T21:32:15.457Z,7.67
2023-02-18T21:34:44.782Z,7.43
2023-02-18T21:37:12.756Z,10.07
2023-02-18T21:39:40.719Z,6.87
2023-02-18T21:42:08.676Z,9.97
2023-02-18T21:44:42.347Z,9.53
2023-02-18T21:47:10.902Z,8.97
2023-02-18T21:49:38.873Z,9.83
2023-02-18T21:52:10.897Z,11.00
2023-02-18T21:54:41.212Z,9.03
2023-02-18T21:57:12.302Z,8.43
2023-02-18T21:59:41.384Z,8.53
2023-02-18T22:02:16.243Z,7.87
2023-02-18T22:04:44.397Z,8.03
2023-02-18T22:07:13.714Z,9.20
2023-02-18T22:09:41.859Z,9.43
2023-02-18T22:12:11.151Z,8.83
2023-02-18T22:14:39.125Z,8.23
2023-02-18T22:17:07.277Z,8.90
2023-02-18T22:19:35.480Z,9.40
2023-02-18T22:22:03.538Z,10.73
2023-02-18T22:24:33.402Z,10.97
2023-02-18T22:27:01.688Z,8.57
2023-02-18T22:29:31.271Z,8.27
2023-02-18T22:31:59.576Z,10.03
2023-02-18T22:34:27.638Z,8.27
2023-02-18T22:36:55.736Z,9.30
2023-02-18T22:39:24.389Z,8.10
2023-02-18T22:41:53.742Z,9.83
2023-02-18T22:44:23.053Z,6.90
2023-02-18T22:46:51.405Z,8.10
2023-02-18T22:49:19.355Z,9.30
2023-02-18T22:51:47.347Z,9.37
2023-02-18T22:54:17.307Z,11.83
2023-02-18T22:56:46.210Z,10.20
2023-02-18T22:59:17.380Z,9.33
2023-02-18T23:01:49.267Z,8.33
2023-02-18T23:04:19.663Z,7.93
2023-02-18T23:06:48.656Z,7.67
2023-02-18T23:09:19.170Z,9.13
2023-02-18T23:11:49.873Z,11.10
2023-02-18T23:14:19.352Z,9.00
2023-02-18T23:17:06.732Z,8.37
2023-02-18T23:19:36.054Z,9.70
2023-02-18T23:22:04.069Z,12.73
2023-02-18T23:24:34.135Z,8.70
2023-02-18T23:27:02.534Z,8.83
2023-02-18T23:29:31.893Z,10.10
2023-02-18T23:31:59.880Z,8.00
2023-02-18T23:34:28.588Z,8.03
2023-02-18T23:36:57.196Z,9.83
2023-02-18T23:39:25.367Z,9.97
2023-02-18T23:41:53.566Z,8.60
2023-02-18T23:44:23.263Z,10.40
2023-02-18T23:46:53.226Z,8.00
2023-02-18T23:49:23.201Z,6.23
2023-02-18T23:51:51.624Z,6.80
2023-02-18T23:54:20.121Z,8.97
2023-02-18T23:56:48.334Z,9.57
2023-02-18T23:59:16.800Z,6.00
